Time;durP1;ratioP1;P1;durP2;ratioP2;P2;SDS_P1;SDS_P2;PMS_P1;PMS_P2;Temp;Humidity;BMP_temperature;BMP_pressure;BME280_temperature;BME280_humidity;BME280_pressure;Samples;Min_cycle;Max_cycle;Signal;HPM_P1;HPM_P2
2023/02/09 00:02:21;;;;;;;25.50;11.60;;;;;;;-6.04;100.00;102300.27;104430;1272;72050;-62
2023/02/09 00:04:50;;;;;;;23.00;13.00;;;;;;;-6.12;100.00;102296.67;104632;1259;60904;-61
2023/02/09 00:07:18;;;;;;;20.70;11.90;;;;;;;-6.18;100.00;102297.26;104510;1258;60803;-62
2023/02/09 00:09:47;;;;;;;23.00;13.00;;;;;;;-6.24;100.00;102296.77;104500;1259;72542;-63
2023/02/09 00:15:03;;;;;;;;;;;;;;;-6.36;100.00;102293.89;104436;1258;72142;-62
2023/02/09 00:17:35;;;;;;;22.90;12.50;;;;;;;-6.42;100.00;102290.37;104529;1259;61427;-62
2023/02/09 00:20:04;;;;;;;19.60;10.70;;;;;;;-6.36;100.00;102286.90;104436;1258;60879;-63
2023/02/09 00:22:33;;;;;;;17.90;10.30;;;;;;;-6.29;100.00;102284.95;104545;1259;71940;-65
2023/02/09 00:25:01;;;;;;;17.60;10.10;;;;;;;-6.20;100.00;102286.23;104269;1261;68601;-62
2023/02/09 00:27:34;;;;;;;18.30;9.30;;;;;;;-6.08;100.00;102286.73;104508;1259;72615;-62
2023/02/09 00:30:04;;;;;;;15.60;9.50;;;;;;;-6.03;100.00;102286.66;104424;1259;61671;-63
2023/02/09 00:32:33;;;;;;;17.80;9.50;;;;;;;-6.07;100.00;102280.64;104523;1269;61743;-61
2023/02/09 00:35:01;;;;;;;14.90;9.70;;;;;;;-6.10;100.00;102280.40;104369;1260;73934;-62
2023/02/09 00:37:29;;;;;;;16.10;9.80;;;;;;;-6.13;100.00;102279.17;104477;1258;68454;-63
2023/02/09 00:39:58;;;;;;;16.80;10.40;;;;;;;-6.16;100.00;102279.30;104366;1259;72351;-61
2023/02/09 00:42:26;;;;;;;17.30;9.60;;;;;;;-6.22;100.00;102275.04;104605;1272;62364;-61
2023/02/09 00:44:55;;;;;;;18.50;10.10;;;;;;;-6.27;100.00;102272.61;104683;1260;61696;-62
2023/02/09 00:47:23;;;;;;;15.90;10.50;;;;;;;-6.34;100.00;102272.34;104733;1253;75332;-62
2023/02/09 00:49:51;;;;;;;19.00;10.30;;;;;;;-6.34;100.00;102267.33;104617;1265;68151;-62
2023/02/09 00:57:14;;;;;;;14.20;7.20;;;;;;;-6.47;100.00;102255.21;104623;1269;61692;-62
2023/02/09 00:59:42;;;;;;;19.20;9.50;;;;;;;-6.43;100.00;102255.98;104646;1272;61143;-61
2023/02/09 01:02:11;;;;;;;14.90;8.70;;;;;;;-6.39;100.00;102255.06;104586;1257;74471;-63
2023/02/09 01:04:40;;;;;;;16.90;8.60;;;;;;;-6.32;100.00;102255.41;104709;1258;70234;-62
2023/02/09 01:07:08;;;;;;;15.60;8.20;;;;;;;-6.19;100.00;102260.14;104582;1270;74005;-62
2023/02/09 01:09:37;;;;;;;13.70;8.10;;;;;;;-6.15;100.00;102262.52;104667;1259;62112;-62
2023/02/09 01:12:10;;;;;;;11.70;7.90;;;;;;;-6.16;100.00;102266.50;104771;1258;61787;-61
2023/02/09 01:14:38;;;;;;;15.50;8.60;;;;;;;-6.15;100.00;102259.95;104597;1257;73709;-62
2023/02/09 01:17:07;;;;;;;18.50;9.70;;;;;;;-6.14;100.00;102253.54;104682;1257;68827;-62
2023/02/09 01:19:35;;;;;;;17.10;10.50;;;;;;;-6.07;100.00;102251.95;104737;1256;71905;-63
2023/02/09 01:22:04;;;;;;;17.80;10.10;;;;;;;-6.05;100.00;102250.17;104648;1255;61587;-61
2023/02/09 01:24:33;;;;;;;20.10;11.10;;;;;;;-6.03;100.00;102241.27;104705;1256;61628;-62
2023/02/09 01:27:02;;;;;;;19.10;10.20;;;;;;;-6.02;100.00;102239.59;104623;1259;72967;-61
2023/02/09 01:29:31;;;;;;;16.60;10.70;;;;;;;-6.05;100.00;102238.38;104710;1259;69223;-62
2023/02/09 01:32:00;;;;;;;19.60;10.20;;;;;;;-6.07;100.00;102231.12;104762;1264;72434;-62
2023/02/09 01:34:29;;;;;;;18.80;10.20;;;;;;;-6.03;100.00;102230.98;104809;1256;61748;-62
2023/02/09 01:36:57;;;;;;;18.40;10.60;;;;;;;-6.05;100.00;102231.92;104801;1254;61788;-64
2023/02/09 01:39:27;;;;;;;17.00;9.80;;;;;;;-6.10;100.00;102225.59;104667;1254;73614;-62
2023/02/09 01:41:55;;;;;;;19.90;10.80;;;;;;;-6.17;100.00;102226.84;105203;1254;69219;-62
2023/02/09 01:44:24;;;;;;;17.70;10.40;;;;;;;-6.25;100.00;102227.70;104634;1260;71310;-62
2023/02/09 01:46:52;;;;;;;18.20;10.20;;;;;;;-6.27;100.00;102227.70;104882;1255;61676;-61
2023/02/09 01:49:25;;;;;;;17.70;9.80;;;;;;;-6.29;100.00;102226.26;104978;1251;61624;-61
2023/02/09 01:52:14;;;;;;;15.90;9.50;;;;;;;-6.23;100.00;102227.29;104654;1258;72946;-62
2023/02/09 01:54:49;;;;;;;12.70;8.40;;;;;;;-6.22;100.00;102222.77;104584;1257;69726;-62
2023/02/09 01:57:22;;;;;;;18.60;10.10;;;;;;;-6.21;100.00;102225.25;104788;1257;72383;-62
2023/02/09 01:59:53;;;;;;;18.80;9.70;;;;;;;-6.22;100.00;102217.98;104580;1266;61163;-62
2023/02/09 02:02:21;;;;;;;17.90;9.20;;;;;;;-6.24;100.00;102215.13;104611;1256;61692;-62
2023/02/09 02:04:50;;;;;;;21.40;9.40;;;;;;;-6.24;100.00;102208.96;104684;1258;72513;-62
2023/02/09 02:07:35;;;;;;;18.60;10.00;;;;;;;-6.20;100.00;102208.54;104550;1257;68614;-62
2023/02/09 02:10:04;;;;;;;17.10;10.10;;;;;;;-6.30;100.00;102207.73;104785;1257;72185;-61
2023/02/09 02:12:32;;;;;;;19.80;10.20;;;;;;;-6.34;100.00;102208.00;104750;1259;61697;-62
2023/02/09 02:15:01;;;;;;;19.60;10.70;;;;;;;-6.37;100.00;102207.59;104760;1262;61695;-62
2023/02/09 02:17:55;;;;;;;17.00;10.20;;;;;;;-6.39;100.00;102208.83;104517;1255;72643;-62
2023/02/09 02:21:03;;;;;;;16.40;9.70;;;;;;;-6.43;100.00;102212.15;104648;1256;68807;-62
2023/02/09 02:23:55;;;;;;;19.50;10.90;;;;;;;-6.51;100.00;102210.59;104356;1267;72170;-62
2023/02/09 02:26:45;;;;;;;20.00;10.30;;;;;;;-6.61;100.00;102212.95;104651;1262;61775;-62
2023/02/09 02:29:42;;;;;;;19.60;11.20;;;;;;;-6.70;100.00;102215.42;104511;1256;61627;-63
2023/02/09 02:32:50;;;;;;;23.30;12.10;;;;;;;-6.77;100.00;102217.52;104954;1256;73588;-63
2023/02/09 02:35:23;;;;;;;25.80;11.90;;;;;;;-6.77;100.00;102217.04;104565;1256;67784;-63
2023/02/09 02:38:00;;;;;;;19.20;10.70;;;;;;;-6.71;100.00;102211.81;104482;1253;72096;-63
2023/02/09 02:40:47;;;;;;;;;;;;;;;-6.70;100.00;102212.41;104542;1255;62041;-64
2023/02/09 02:43:35;;;;;;;26.10;12.40;;;;;;;-6.79;100.00;102214.67;104523;1256;61587;-64
2023/02/09 02:46:09;;;;;;;;;;;;;;;-6.81;100.00;102211.60;104687;1254;73622;-63
2023/02/09 02:48:44;;;;;;;21.60;12.40;;;;;;;-6.92;100.00;102210.39;104435;1274;70666;-63
2023/02/09 02:51:27;;;;;;;23.10;12.40;;;;;;;-6.97;100.00;102207.32;104655;1255;72655;-63
2023/02/09 02:53:56;;;;;;;26.20;13.40;;;;;;;-7.00;100.00;102208.98;104636;1257;61644;-63
2023/02/09 02:56:34;;;;;;;24.90;12.50;;;;;;;-7.02;100.00;102212.72;104713;1256;61609;-73
2023/02/09 02:59:03;;;;;;;;;;;;;;;-7.09;100.00;102215.85;104592;1256;74099;-62
2023/02/09 03:01:40;;;;;;;24.50;13.00;;;;;;;-7.18;100.00;102213.01;104700;1254;68548;-62
2023/02/09 03:04:08;;;;;;;26.20;12.60;;;;;;;-7.17;100.00;102206.92;104556;1269;72556;-63
2023/02/09 03:06:37;;;;;;;18.30;11.40;;;;;;;-7.16;100.00;102209.39;104660;1259;61595;-62
2023/02/09 03:09:05;;;;;;;20.50;11.00;;;;;;;-7.17;100.00;102201.63;104693;1256;61580;-63
2023/02/09 03:11:51;;;;;;;26.10;12.20;;;;;;;-7.21;100.00;102202.71;104821;1254;73301;-62
2023/02/09 03:14:37;;;;;;;23.40;12.10;;;;;;;-7.19;100.00;102201.65;104956;1255;68205;-62
2023/02/09 03:17:11;;;;;;;20.70;12.40;;;;;;;-7.19;100.00;102199.96;104655;1260;71952;-62
2023/02/09 03:19:49;;;;;;;18.50;10.80;;;;;;;-7.20;100.00;102198.88;104743;1254;61691;-62
2023/02/09 03:22:38;;;;;;;21.20;11.30;;;;;;;-7.20;100.00;102194.11;104742;1255;61692;-62
2023/02/09 03:25:07;;;;;;;22.30;11.00;;;;;;;-7.16;100.00;102188.75;104677;1256;72723;-62
2023/02/09 03:27:52;;;;;;;19.10;10.90;;;;;;;-7.11;100.00;102189.95;104534;1256;67766;-64
2023/02/09 03:30:21;;;;;;;18.40;10.00;;;;;;;-7.10;100.00;102188.19;104801;1260;72504;-62
2023/02/09 03:32:49;;;;;;;17.50;9.40;;;;;;;-6.99;100.00;102191.43;104611;1251;61710;-62
2023/02/09 03:35:18;;;;;;;16.50;9.40;;;;;;;-6.93;100.00;102189.98;104647;1259;61694;-62
2023/02/09 03:37:46;;;;;;;16.10;9.30;;;;;;;-6.89;100.00;102188.07;104531;1257;72948;-62
2023/02/09 03:40:15;;;;;;;21.30;9.60;;;;;;;-6.84;100.00;102187.17;104623;1264;68183;-62
2023/02/09 03:42:44;;;;;;;19.60;10.00;;;;;;;-6.76;100.00;102187.92;104515;1265;72158;-62
2023/02/09 03:45:13;;;;;;;17.60;10.00;;;;;;;-6.67;100.00;102181.56;104681;1255;61707;-62
2023/02/09 03:47:41;;;;;;;16.70;9.80;;;;;;;-6.59;100.00;102182.90;104662;1256;61581;-63
2023/02/09 03:50:10;;;;;;;18.60;10.00;;;;;;;-6.52;100.00;102183.92;104665;1256;72292;-61
2023/02/09 03:52:38;;;;;;;18.60;10.50;;;;;;;-6.45;100.00;102179.11;104697;1256;68827;-61
2023/02/09 03:55:07;;;;;;;18.50;10.20;;;;;;;-6.43;100.00;102179.17;104672;1255;71843;-60
2023/02/09 03:57:35;;;;;;;20.10;10.20;;;;;;;-6.42;100.00;102179.10;104739;1255;61729;-64
2023/02/09 04:00:05;;;;;;;21.60;10.40;;;;;;;-6.40;100.00;102178.17;104856;1263;61548;-60
2023/02/09 04:02:38;;;;;;;14.20;9.50;;;;;;;-6.42;100.00;102177.74;104681;1255;72943;-60
2023/02/09 04:05:07;;;;;;;15.70;9.90;;;;;;;-6.37;100.00;102182.70;104763;1256;69467;-63
2023/02/09 04:07:41;;;;;;;17.30;9.00;;;;;;;-6.38;100.00;102178.86;104631;1255;71337;-60
2023/02/09 04:10:10;;;;;;;16.90;9.60;;;;;;;-6.37;100.00;102180.13;104879;1256;61646;-60
2023/02/09 04:12:39;;;;;;;16.80;9.10;;;;;;;-6.34;100.00;102183.06;104687;1256;61699;-62
2023/02/09 04:15:08;;;;;;;16.50;9.10;;;;;;;-6.29;100.00;102183.20;104771;1271;73916;-63
2023/02/09 04:17:37;;;;;;;15.70;8.00;;;;;;;-6.23;100.00;102181.86;104687;1259;68655;-61
2023/02/09 04:20:06;;;;;;;16.60;9.00;;;;;;;-6.22;100.00;102180.77;104953;1256;72010;-61
2023/02/09 04:22:35;;;;;;;17.90;9.50;;;;;;;-6.17;100.00;102177.30;104625;1267;61781;-62
2023/02/09 04:25:04;;;;;;;15.20;9.30;;;;;;;-6.13;100.00;102181.36;104739;1256;61633;-62
2023/02/09 04:27:33;;;;;;;16.50;9.30;;;;;;;-6.13;100.00;102181.01;104766;1256;72872;-61
2023/02/09 04:30:02;;;;;;;16.50;9.20;;;;;;;-6.18;100.00;102183.39;104731;1255;68008;-61
2023/02/09 04:32:31;;;;;;;17.00;9.00;;;;;;;-6.24;100.00;102179.92;104738;1255;73530;-61
2023/02/09 04:35:00;;;;;;;16.20;8.90;;;;;;;-6.27;100.00;102182.13;104612;1255;61711;-61
2023/02/09 04:37:28;;;;;;;15.90;9.00;;;;;;;-6.32;100.00;102178.56;104617;1271;61624;-71
2023/02/09 04:39:56;;;;;;;15.30;8.60;;;;;;;-6.31;100.00;102176.23;104647;1256;72923;-63
2023/02/09 04:42:25;;;;;;;15.00;9.10;;;;;;;-6.27;100.00;102181.27;104650;1255;68226;-62
2023/02/09 04:44:54;;;;;;;17.10;9.30;;;;;;;-6.24;100.00;102174.31;104805;1256;72215;-61
2023/02/09 04:47:22;;;;;;;19.40;9.40;;;;;;;-6.22;100.00;102179.55;104690;1256;61634;-62
2023/02/09 04:49:51;;;;;;;16.30;8.90;;;;;;;-6.21;100.00;102173.83;104788;1256;61714;-63
2023/02/09 04:52:19;;;;;;;14.90;9.30;;;;;;;-6.21;100.00;102171.11;104633;1259;73978;-61
2023/02/09 04:54:47;;;;;;;17.50;9.40;;;;;;;-6.20;100.00;102166.02;104676;1255;69440;-61
2023/02/09 05:00:04;;;;;;;15.60;9.00;;;;;;;-6.21;100.00;102161.18;104768;1256;61704;-63
2023/02/09 05:02:32;;;;;;;14.50;9.30;;;;;;;-6.22;100.00;102156.35;104974;1263;61569;-63
2023/02/09 05:05:01;;;;;;;13.50;8.90;;;;;;;-6.29;100.00;102153.86;104706;1255;73443;-61
2023/02/09 05:07:34;;;;;;;16.70;9.30;;;;;;;-6.28;100.00;102142.10;105039;1256;68369;-62
2023/02/09 05:10:03;;;;;;;14.90;9.20;;;;;;;-6.34;100.00;102140.55;104548;1257;71767;-62
2023/02/09 05:12:32;;;;;;;19.10;9.80;;;;;;;-6.44;100.00;102137.47;104601;1265;61707;-63
2023/02/09 05:15:01;;;;;;;17.60;10.00;;;;;;;-6.56;100.00;102138.77;104488;1255;62056;-62
2023/02/09 05:17:32;;;;;;;18.40;10.70;;;;;;;-6.54;100.00;102142.30;104592;1254;72804;-61
2023/02/09 05:20:00;;;;;;;19.30;10.40;;;;;;;-6.49;100.00;102142.27;104597;1254;68305;-62
2023/02/09 05:22:29;;;;;;;17.50;10.40;;;;;;;-6.48;100.00;102143.02;104512;1263;72025;-62
2023/02/09 05:24:58;;;;;;;18.30;10.60;;;;;;;-6.47;100.00;102140.02;104701;1256;61585;-61
2023/02/09 05:27:26;;;;;;;17.70;10.50;;;;;;;-6.50;100.00;102136.41;104526;1256;61601;-64
2023/02/09 05:29:55;;;;;;;18.30;10.00;;;;;;;-6.58;100.00;102135.58;104463;1259;73345;-63
2023/02/09 05:32:23;;;;;;;19.30;10.90;;;;;;;-6.66;100.00;102148.30;104602;1269;68846;-62
2023/02/09 05:34:52;;;;;;;18.30;11.50;;;;;;;-6.70;100.00;102149.95;104543;1256;71907;-62
2023/02/09 05:37:20;;;;;;;18.20;11.00;;;;;;;-6.71;100.00;102146.64;104540;1265;61600;-63
2023/02/09 05:39:49;;;;;;;23.20;12.00;;;;;;;-6.71;100.00;102147.15;104562;1267;61679;-70
2023/02/09 05:42:18;;;;;;;23.10;11.70;;;;;;;-6.68;100.00;102147.36;104700;1255;74127;-68
2023/02/09 05:44:48;;;;;;;22.70;12.20;;;;;;;-6.62;100.00;102140.36;104558;1257;70158;-67
2023/02/09 05:47:18;;;;;;;21.00;12.10;;;;;;;-6.58;100.00;102135.70;104624;1267;71400;-63
2023/02/09 05:49:47;;;;;;;21.40;12.30;;;;;;;-6.52;100.00;102136.25;104538;1266;61686;-62
2023/02/09 05:52:16;;;;;;;19.60;11.30;;;;;;;-6.44;100.00;102136.47;104756;1260;61597;-63
2023/02/09 05:54:46;;;;;;;20.30;11.70;;;;;;;-6.39;100.00;102131.17;104718;1256;73118;-62
2023/02/09 05:57:14;;;;;;;23.00;11.90;;;;;;;-6.31;100.00;102126.75;104695;1255;69063;-62
2023/02/09 05:59:44;;;;;;;18.70;11.10;;;;;;;-6.20;100.00;102126.57;104551;1256;72371;-61
2023/02/09 06:02:12;;;;;;;19.70;10.70;;;;;;;-6.13;100.00;102133.17;104567;1259;61579;-65
2023/02/09 07:22:27;;;;;;;17.90;10.10;;;;;;;-4.25;100.00;102137.20;104553;1257;64522;-64
2023/02/09 07:24:56;;;;;;;19.80;9.90;;;;;;;-4.21;100.00;102133.98;104564;1256;61596;-64
2023/02/09 07:27:24;;;;;;;19.90;11.20;;;;;;;-4.14;100.00;102130.98;104500;1256;72988;-63
2023/02/09 07:29:53;;;;;;;21.00;11.70;;;;;;;-4.05;100.00;102126.87;104582;1258;69243;-64
2023/02/09 07:32:22;;;;;;;22.30;11.70;;;;;;;-3.94;100.00;102129.73;104519;1263;74088;-64
2023/02/09 07:34:51;;;;;;;19.80;12.20;;;;;;;-3.80;100.00;102127.20;104506;1263;61704;-64
2023/02/09 07:37:20;;;;;;;21.60;11.50;;;;;;;-3.69;100.00;102122.71;104551;1255;61678;-64
2023/02/09 07:39:48;;;;;;;17.70;10.30;;;;;;;-3.58;100.00;102120.55;104564;1263;73627;-64
2023/02/09 07:42:17;;;;;;;18.60;10.90;;;;;;;-3.47;100.00;102124.01;104576;1255;68107;-64
2023/02/09 07:44:51;;;;;;;20.00;11.90;;;;;;;-3.37;100.00;102122.50;104554;1257;73496;-64
2023/02/09 07:47:19;;;;;;;16.00;10.80;;;;;;;-3.26;100.00;102121.58;104399;1258;62048;-65
2023/02/09 07:49:48;;;;;;;20.00;11.40;;;;;;;-3.16;100.00;102116.59;104500;1267;61570;-66
2023/02/09 07:52:16;;;;;;;19.50;11.30;;;;;;;-3.05;100.00;102111.81;104453;1256;73101;-66
2023/02/09 07:54:45;;;;;;;17.90;12.00;;;;;;;-2.96;100.00;102108.90;104619;1256;69613;-67
2023/02/09 07:57:14;;;;;;;18.60;11.70;;;;;;;-2.86;100.00;102106.13;104745;1256;72441;-67
2023/02/09 07:59:42;;;;;;;17.50;10.50;;;;;;;-2.78;100.00;102105.36;104835;1265;61593;-65
2023/02/09 08:02:16;;;;;;;19.80;11.40;;;;;;;-2.68;100.00;102108.27;104926;1256;61659;-64
2023/02/09 08:04:44;;;;;;;18.10;11.60;;;;;;;-2.57;100.00;102108.43;104793;1255;73300;-66
2023/02/09 08:07:13;;;;;;;17.80;11.90;;;;;;;-2.48;100.00;102108.38;105073;1265;68739;-64
2023/02/09 08:09:43;;;;;;;19.60;12.30;;;;;;;-2.39;100.00;102104.56;104783;1260;72409;-65
2023/02/09 08:12:12;;;;;;;17.30;11.20;;;;;;;-2.29;100.00;102104.15;104614;1258;61718;-68
2023/02/09 08:14:43;;;;;;;17.00;10.70;;;;;;;-2.22;100.00;102108.29;104625;1256;61575;-67
2023/02/09 08:17:26;;;;;;;19.00;12.20;;;;;;;-2.14;100.00;102106.77;104981;1259;73832;-67
2023/02/09 08:20:04;;;;;;;15.90;10.60;;;;;;;-2.04;100.00;102112.94;104584;1274;70496;-67
2023/02/09 08:22:35;;;;;;;16.90;11.20;;;;;;;-1.95;100.00;102107.48;104536;1259;73205;-67
2023/02/09 08:25:04;;;;;;;18.40;11.60;;;;;;;-1.88;100.00;102109.90;104601;1258;61688;-63
2023/02/09 08:27:34;;;;;;;20.10;11.90;;;;;;;-1.82;100.00;102106.25;104689;1269;61695;-65
2023/02/09 08:30:03;;;;;;;19.90;12.30;;;;;;;-1.76;100.00;102109.27;104545;1257;74459;-68
2023/02/09 08:34:58;;;;;;;18.90;12.20;;;;;;;-1.95;100.00;102100.64;102452;1289;601176;-65
2023/02/09 08:37:26;;;;;;;21.50;12.70;;;;;;;-1.55;100.00;102097.54;104412;1267;60365;-64
2023/02/09 08:39:56;;;;;;;26.30;16.00;;;;;;;-1.34;100.00;102093.14;104147;1269;60563;-66
2023/02/09 08:42:24;;;;;;;25.90;16.60;;;;;;;-1.21;100.00;102093.72;104449;1266;71826;-65
2023/02/09 08:44:53;;;;;;;29.20;16.80;;;;;;;-1.11;100.00;102089.86;104267;1270;68805;-63
2023/02/09 08:47:23;;;;;;;25.70;17.00;;;;;;;-1.02;100.00;102087.84;104402;1261;72384;-67
2023/02/09 08:49:52;;;;;;;24.90;17.30;;;;;;;-0.88;100.00;102093.79;104553;1256;60387;-65
2023/02/09 08:52:20;;;;;;;33.30;18.90;;;;;;;-0.76;100.00;102097.91;105166;1251;60393;-63
2023/02/09 08:54:49;;;;;;;32.40;18.80;;;;;;;-0.65;100.00;102099.22;104642;1254;71077;-67
2023/02/09 08:57:18;;;;;;;30.30;18.00;;;;;;;-0.54;100.00;102094.15;104790;1254;68889;-66
2023/02/09 08:59:47;;;;;;;29.60;17.40;;;;;;;-0.50;100.00;102090.55;104555;1267;73371;-64
2023/02/09 09:02:16;;;;;;;28.30;17.10;;;;;;;-0.43;100.00;102083.41;104856;1257;60934;-66
2023/02/09 09:04:45;;;;;;;28.10;17.20;;;;;;;-0.35;100.00;102080.48;104761;1254;61036;-65
2023/02/09 09:07:15;;;;;;;28.40;17.50;;;;;;;-0.27;100.00;102071.49;104711;1254;73490;-65
2023/02/09 09:09:43;;;;;;;30.40;17.40;;;;;;;-0.20;100.00;102069.55;104725;1257;69627;-65
2023/02/09 09:12:12;;;;;;;23.90;16.70;;;;;;;-0.10;100.00;102067.88;104735;1257;72322;-65
2023/02/09 09:14:43;;;;;;;28.70;17.10;;;;;;;-0.01;100.00;102068.05;104672;1256;60757;-67
2023/02/09 09:17:12;;;;;;;27.10;17.50;;;;;;;0.11;100.00;102061.61;104637;1264;60978;-66
2023/02/09 09:19:41;;;;;;;27.00;16.70;;;;;;;0.20;100.00;102059.54;104617;1253;71394;-64
2023/02/09 09:22:10;;;;;;;29.60;17.00;;;;;;;0.28;100.00;102059.64;104671;1264;70914;-67
2023/02/09 09:24:41;;;;;;;30.10;18.80;;;;;;;0.38;99.97;102052.98;104838;1256;71994;-64
2023/02/09 09:27:10;;;;;;;30.30;19.00;;;;;;;0.47;100.00;102051.90;104902;1254;60819;-64
2023/02/09 09:29:41;;;;;;;29.20;18.00;;;;;;;0.54;99.91;102045.77;104631;1257;60918;-65
2023/02/09 09:32:12;;;;;;;28.40;18.10;;;;;;;0.64;100.00;102036.48;104688;1254;72111;-64
2023/02/09 09:34:42;;;;;;;30.70;17.80;;;;;;;0.75;96.37;102031.70;104599;1255;69702;-65
2023/02/09 09:37:13;;;;;;;26.20;16.90;;;;;;;0.83;95.61;102027.48;104490;1254;72221;-65
2023/02/09 09:39:43;;;;;;;25.30;16.20;;;;;;;0.92;95.37;102022.28;104554;1251;60967;-66
2023/02/09 09:42:42;;;;;;;23.20;15.90;;;;;;;1.01;91.84;102016.39;104908;1251;60770;-65
2023/02/09 09:45:13;;;;;;;25.90;15.50;;;;;;;0.99;86.95;102016.82;104796;1256;72310;-62
2023/02/09 09:47:42;;;;;;;24.60;15.00;;;;;;;1.06;88.25;102013.59;104891;1254;68746;-68
2023/02/09 09:50:15;;;;;;;23.20;14.50;;;;;;;1.13;88.33;102011.09;104770;1254;72576;-65
2023/02/09 09:52:47;;;;;;;23.20;15.20;;;;;;;1.20;88.07;102008.01;104778;1254;60789;-66
2023/02/09 09:55:27;;;;;;;29.00;14.60;;;;;;;1.28;85.69;102010.03;104643;1251;60873;-66
2023/02/09 09:57:58;;;;;;;24.00;14.90;;;;;;;1.40;84.57;102006.41;104828;1257;72606;-71
2023/02/09 10:00:38;;;;;;;25.20;14.20;;;;;;;1.47;81.59;102002.50;105130;1251;68792;-64
2023/02/09 10:03:16;;;;;;;25.90;16.30;;;;;;;1.51;78.95;101998.66;104426;1261;70920;-64
2023/02/09 10:05:47;;;;;;;27.50;16.70;;;;;;;1.53;81.72;101992.69;105093;1251;60758;-65
2023/02/09 10:08:31;;;;;;;31.50;18.30;;;;;;;1.53;83.34;101986.27;104978;1254;60870;-65
2023/02/09 10:11:14;;;;;;;31.70;18.30;;;;;;;1.50;84.07;101981.86;104794;1269;73160;-66
2023/02/09 10:13:49;;;;;;;31.20;19.10;;;;;;;1.52;87.68;101981.05;104809;1267;69418;-69
2023/02/09 10:16:23;;;;;;;28.70;18.70;;;;;;;1.47;84.59;101976.77;104862;1251;72931;-65
2023/02/09 13:57:14;;;;;;;8.90;6.00;;;;;;;-0.78;100.00;101786.23;101979;1292;600848;-68
2023/02/09 13:59:43;;;;;;;9.50;6.50;;;;;;;-0.41;100.00;101779.33;104046;1269;60124;-68
2023/02/09 14:02:20;;;;;;;12.20;7.50;;;;;;;-0.34;100.00;101779.93;104025;1279;61270;-67
2023/02/09 14:04:50;;;;;;;9.90;6.00;;;;;;;-0.27;100.00;101781.91;103690;1270;71485;-69
2023/02/09 14:07:20;;;;;;;10.50;7.60;;;;;;;-0.30;100.00;101779.91;103875;1285;69923;-69
2023/02/09 14:09:50;;;;;;;11.40;7.70;;;;;;;-0.32;100.00;101776.02;103485;1282;244489;-73
2023/02/09 14:12:49;;;;;;;11.60;7.40;;;;;;;-0.32;100.00;101766.92;104007;1269;60469;-65
2023/02/09 14:17:59;;;;;;;10.90;7.40;;;;;;;-0.32;100.00;101770.70;104098;1264;74521;-69
2023/02/09 14:20:27;;;;;;;12.40;7.30;;;;;;;-0.34;100.00;101769.09;103923;1267;71276;-67
2023/02/09 14:22:57;;;;;;;10.50;7.20;;;;;;;-0.33;100.00;101768.25;103919;1265;73277;-68
2023/02/09 14:25:28;;;;;;;11.20;7.70;;;;;;;-0.32;100.00;101766.21;104699;1252;60844;-70
2023/02/09 14:27:56;;;;;;;12.30;7.10;;;;;;;-0.33;100.00;101763.60;104464;1267;60635;-71
2023/02/09 14:30:31;;;;;;;10.90;6.70;;;;;;;-0.35;100.00;101765.41;104439;1260;74646;-68
2023/02/09 14:33:02;;;;;;;9.90;6.80;;;;;;;-0.40;100.00;101765.07;104647;1266;69738;-68
2023/02/09 14:35:39;;;;;;;8.60;6.70;;;;;;;-0.43;100.00;101762.56;104281;1257;73677;-67
2023/02/09 14:38:41;;;;;;;11.70;6.80;;;;;;;-0.49;100.00;101759.60;104522;1253;61572;-67
2023/02/09 14:41:30;;;;;;;8.90;6.70;;;;;;;-0.57;100.00;101759.30;104595;1257;62058;-65
2023/02/09 14:44:22;;;;;;;10.00;7.60;;;;;;;-0.68;100.00;101750.63;104353;1256;73396;-63
2023/02/09 14:46:53;;;;;;;9.80;7.10;;;;;;;-0.80;100.00;101753.30;104517;1256;70487;-66
2023/02/09 14:49:21;;;;;;;8.30;6.90;;;;;;;-0.87;100.00;101757.51;104314;1259;74643;-64
2023/02/09 14:52:00;;;;;;;9.30;6.80;;;;;;;-0.92;100.00;101759.39;104564;1251;60845;-62
2023/02/09 14:54:31;;;;;;;12.10;7.20;;;;;;;-0.96;100.00;101760.27;104300;1256;60783;-63
2023/02/09 14:57:02;;;;;;;13.10;7.50;;;;;;;-1.00;100.00;101750.64;105050;1266;74770;-65
2023/02/09 14:59:31;;;;;;;8.60;6.30;;;;;;;-1.04;100.00;101749.80;104522;1258;70877;-65
2023/02/09 15:01:59;;;;;;;10.40;6.60;;;;;;;-1.10;100.00;101746.30;104903;1257;74144;-66
2023/02/09 15:04:28;;;;;;;11.20;7.00;;;;;;;-1.14;100.00;101753.40;104470;1255;61841;-67
2023/02/09 15:06:59;;;;;;;12.60;7.60;;;;;;;-1.19;100.00;101753.54;104375;1260;61765;-68
2023/02/09 15:09:31;;;;;;;10.10;7.20;;;;;;;-1.21;100.00;101750.88;104460;1272;73929;-70
2023/02/09 15:12:06;;;;;;;11.50;7.50;;;;;;;-1.31;100.00;101756.33;104363;1256;71705;-67
2023/02/09 15:14:44;;;;;;;9.90;7.00;;;;;;;-1.41;100.00;101756.14;104660;1263;74677;-67
2023/02/09 15:17:15;;;;;;;9.70;6.80;;;;;;;-1.48;100.00;101760.99;104872;1255;60463;-67
2023/02/09 15:19:45;;;;;;;10.80;6.90;;;;;;;-1.60;100.00;101764.30;104567;1260;60798;-66
2023/02/09 15:22:15;;;;;;;11.20;6.10;;;;;;;-1.67;100.00;101764.87;104374;1261;73266;-66
2023/02/09 15:24:46;;;;;;;7.20;5.70;;;;;;;-1.77;100.00;101763.42;104888;1258;70672;-66
2023/02/09 15:27:20;;;;;;;11.10;6.10;;;;;;;-1.87;100.00;101762.52;104361;1259;74764;-67
2023/02/09 15:29:49;;;;;;;10.60;6.30;;;;;;;-1.88;100.00;101762.13;104469;1257;61465;-64
2023/02/09 15:32:19;;;;;;;8.70;6.50;;;;;;;-1.91;99.81;101763.04;105327;1254;61533;-67
2023/02/09 15:34:50;;;;;;;8.30;6.40;;;;;;;-1.96;99.80;101759.91;105072;1257;74901;-66
2023/02/09 15:37:19;;;;;;;9.50;5.70;;;;;;;-2.05;99.75;101754.69;104256;1254;70489;-65
2023/02/09 15:39:50;;;;;;;8.60;6.80;;;;;;;-2.09;99.91;101753.30;104633;1255;73976;-66
2023/02/09 15:48:10;;;;;;;9.90;6.20;;;;;;;-2.36;99.54;101751.14;104941;1268;73620;-64
2023/02/09 15:50:41;;;;;;;7.90;5.80;;;;;;;-2.43;99.73;101747.06;104617;1256;69716;-65
2023/02/09 15:53:14;;;;;;;10.10;6.40;;;;;;;-2.49;100.00;101741.66;105009;1252;74007;-67
2023/02/09 15:55:43;;;;;;;9.20;6.50;;;;;;;-2.54;99.59;101745.02;104245;1260;62143;-67
2023/02/09 15:58:13;;;;;;;9.20;5.40;;;;;;;-2.56;100.00;101742.92;104855;1255;60949;-66
2023/02/09 16:00:43;;;;;;;8.90;6.30;;;;;;;-2.62;100.00;101744.38;104985;1254;74997;-66
2023/02/09 16:03:15;;;;;;;8.70;6.20;;;;;;;-2.60;100.00;101741.66;104897;1254;71890;-65
2023/02/09 16:05:44;;;;;;;8.30;5.70;;;;;;;-2.68;100.00;101740.80;104474;1272;74340;-64
2023/02/09 16:08:23;;;;;;;8.90;5.80;;;;;;;-2.66;100.00;101738.48;104911;1267;62291;-64
2023/02/09 16:10:52;;;;;;;7.70;6.10;;;;;;;-2.70;100.00;101738.67;104744;1252;60933;-69
2023/02/09 16:13:40;;;;;;;8.50;7.30;;;;;;;-2.72;100.00;101737.41;104490;1253;77112;-65
2023/02/09 16:16:10;;;;;;;11.90;8.60;;;;;;;-2.69;100.00;101737.31;104573;1260;71039;-65
2023/02/09 16:18:45;;;;;;;15.90;9.70;;;;;;;-2.69;100.00;101736.13;104477;1267;73266;-65
2023/02/09 16:21:30;;;;;;;15.10;8.90;;;;;;;-2.69;100.00;101734.24;104441;1253;60492;-66
2023/02/09 16:24:03;;;;;;;11.60;7.50;;;;;;;-2.71;100.00;101731.90;104136;1256;61736;-64
2023/02/09 16:26:32;;;;;;;12.80;7.50;;;;;;;-2.76;100.00;101732.77;104481;1254;75382;-66
2023/02/09 16:29:01;;;;;;;15.70;9.20;;;;;;;-2.82;100.00;101731.94;104478;1256;70879;-66
2023/02/09 16:31:29;;;;;;;13.20;8.80;;;;;;;-2.81;100.00;101731.33;104327;1267;73810;-66
2023/02/09 16:33:58;;;;;;;13.20;9.10;;;;;;;-2.79;100.00;101729.33;104700;1257;60830;-64
2023/02/09 16:36:28;;;;;;;13.00;8.40;;;;;;;-2.77;100.00;101732.52;104408;1272;61375;-69
2023/02/09 16:38:57;;;;;;;12.70;9.10;;;;;;;-2.76;100.00;101728.28;104594;1259;74459;-72